Garrett Lewis on Muck Rack

Garrett Lewis

Verified
Northwest Arkansas
Chief Meteorologist — KFSM-TV (Fort Smith, AR)

5NEWS Chief Meteorologist AMS/NWA Seal | M.S. Applied Meteorology | B.S. Geosciences | Married | Dad | Pilot #avgeek | Weightlifter | I won some awards & stuff.

Search Tweets

Twitter Feed

@5NEWSGarrett — 17,018 followers, 10,259 tweets

Jun 23, 2017

RT @5NEWSJoe: 40% of a Severe T-Storm Watch being issued for our area https://t.co/farlRSHhga

Jun 22, 2017

They follow me everywhere. 🤦‍♂️👎#FLWX KPNS 221553Z 16017G27KT 6SM BR OVC009 29/26 A2995 RMK TORNADO B20 1SM SE AIRPORT TORNADO E40 AO2

Jun 21, 2017

@mcrendog That heavy band headed your way actually has some lightning in it. 😳 https://t.co/Hxd95Vce9x

Jun 21, 2017

@mcrendog Coastal meteorology... so many dynamics in play tonight. If we get a tornado warning I might be "that guy" who goes outside tho. :-/

Show more